<?xml version='1.0' encoding='UTF-8'?><gpx version="1.1" creator="JPX - https://github.com/jenetics/jpx" xmlns="http://www.topografix.com/GPX/1/1"><trk><trkseg><trkpt lat="43.7852904" lon="11.2315241"><ele>44.0</ele><time>2026-04-01T16:42:37.413Z</time></trkpt><trkpt lat="43.7853338" lon="11.2315884"><ele>44.0</ele><time>2026-04-01T16:42:40.914Z</time></trkpt><trkpt lat="43.7853396" lon="11.2316872"><ele>44.0</ele><time>2026-04-01T16:42:45.905Z</time></trkpt><trkpt lat="43.7852807" lon="11.2317413"><ele>44.0</ele><time>2026-04-01T16:42:55.906Z</time></trkpt><trkpt lat="43.7852159" lon="11.2317868"><ele>44.0</ele><time>2026-04-01T16:43:00.905Z</time></trkpt><trkpt lat="43.7851604" lon="11.2318565"><ele>44.0</ele><time>2026-04-01T16:43:03.905Z</time></trkpt><trkpt lat="43.7850733" lon="11.2319767"><ele>44.166666666666664</ele><time>2026-04-01T16:43:07.906Z</time></trkpt><trkpt lat="43.785005" lon="11.2320767"><ele>44.33333333333333</ele><time>2026-04-01T16:43:10.905Z</time></trkpt><trkpt lat="43.7849533" lon="11.2321733"><ele>44.5</ele><time>2026-04-01T16:43:12.906Z</time></trkpt><trkpt lat="43.784895" lon="11.232255"><ele>44.666666666666664</ele><time>2026-04-01T16:43:14.905Z</time></trkpt><trkpt lat="43.7848417" lon="11.23232"><ele>44.833333333333336</ele><time>2026-04-01T16:43:16.905Z</time></trkpt><trkpt lat="43.7847967" lon="11.2323983"><ele>45.0</ele><time>2026-04-01T16:43:18.905Z</time></trkpt><trkpt lat="43.7847517" lon="11.232485"><ele>45.0</ele><time>2026-04-01T16:43:20.905Z</time></trkpt><trkpt lat="43.78471" lon="11.2325633"><ele>45.0</ele><time>2026-04-01T16:43:22.906Z</time></trkpt><trkpt lat="43.78466" lon="11.2326583"><ele>45.0</ele><time>2026-04-01T16:43:25.905Z</time></trkpt><trkpt lat="43.78462" lon="11.232735"><ele>45.0</ele><time>2026-04-01T16:43:28.905Z</time></trkpt><trkpt lat="43.7845817" lon="11.2328067"><ele>45.0</ele><time>2026-04-01T16:43:32.906Z</time></trkpt><trkpt lat="43.784535" lon="11.232895"><ele>45.0</ele><time>2026-04-01T16:43:37.905Z</time></trkpt><trkpt lat="43.784495" lon="11.2329683"><ele>45.0</ele><time>2026-04-01T16:43:40.906Z</time></trkpt><trkpt lat="43.7844517" lon="11.23305"><ele>45.0</ele><time>2026-04-01T16:43:43.905Z</time></trkpt><trkpt lat="43.7844083" lon="11.2331283"><ele>45.0</ele><time>2026-04-01T16:43:45.905Z</time></trkpt><trkpt lat="43.7843633" lon="11.2332083"><ele>45.0</ele><time>2026-04-01T16:43:47.905Z</time></trkpt><trkpt lat="43.7843217" lon="11.2332883"><ele>45.0</ele><time>2026-04-01T16:43:49.905Z</time></trkpt><trkpt lat="43.7842817" lon="11.2333633"><ele>45.0</ele><time>2026-04-01T16:43:51.905Z</time></trkpt><trkpt lat="43.7842417" lon="11.23344"><ele>45.0</ele><time>2026-04-01T16:43:53.905Z</time></trkpt><trkpt lat="43.7841917" lon="11.233535"><ele>45.0</ele><time>2026-04-01T16:43:55.905Z</time></trkpt><trkpt lat="43.7841467" lon="11.23362"><ele>45.0</ele><time>2026-04-01T16:43:57.905Z</time></trkpt><trkpt lat="43.784095" lon="11.2337183"><ele>45.0</ele><time>2026-04-01T16:43:59.905Z</time></trkpt><trkpt lat="43.7840433" lon="11.233815"><ele>45.0</ele><time>2026-04-01T16:44:01.905Z</time></trkpt><trkpt lat="43.7839967" lon="11.2339033"><ele>45.0</ele><time>2026-04-01T16:44:03.905Z</time></trkpt><trkpt lat="43.7839567" lon="11.2339817"><ele>45.0</ele><time>2026-04-01T16:44:05.905Z</time></trkpt><trkpt lat="43.783915" lon="11.23406"><ele>45.0</ele><time>2026-04-01T16:44:07.905Z</time></trkpt><trkpt lat="43.7838767" lon="11.2341333"><ele>45.14285714285714</ele><time>2026-04-01T16:44:09.906Z</time></trkpt><trkpt lat="43.7838383" lon="11.2342067"><ele>45.28571428571429</ele><time>2026-04-01T16:44:11.906Z</time></trkpt><trkpt lat="43.783795" lon="11.2342867"><ele>45.42857142857143</ele><time>2026-04-01T16:44:13.905Z</time></trkpt><trkpt lat="43.7837533" lon="11.2343633"><ele>45.57142857142857</ele><time>2026-04-01T16:44:15.905Z</time></trkpt><trkpt lat="43.783705" lon="11.2344517"><ele>45.71428571428571</ele><time>2026-04-01T16:44:17.905Z</time></trkpt><trkpt lat="43.7836617" lon="11.2345333"><ele>45.85714285714286</ele><time>2026-04-01T16:44:19.905Z</time></trkpt><trkpt lat="43.78362" lon="11.2346083"><ele>46.0</ele><time>2026-04-01T16:44:21.905Z</time></trkpt><trkpt lat="43.7835767" lon="11.2346883"><ele>46.0</ele><time>2026-04-01T16:44:23.905Z</time></trkpt><trkpt lat="43.783535" lon="11.234765"><ele>46.0</ele><time>2026-04-01T16:44:25.905Z</time></trkpt><trkpt lat="43.7834883" lon="11.2348483"><ele>46.0</ele><time>2026-04-01T16:44:27.905Z</time></trkpt><trkpt lat="43.7834417" lon="11.234935"><ele>46.0</ele><time>2026-04-01T16:44:29.906Z</time></trkpt><trkpt lat="43.783375" lon="11.2350567"><ele>46.0</ele><time>2026-04-01T16:44:31.905Z</time></trkpt><trkpt lat="43.7833167" lon="11.2351383"><ele>46.0</ele><time>2026-04-01T16:44:33.905Z</time></trkpt><trkpt lat="43.78326" lon="11.23522"><ele>45.8</ele><time>2026-04-01T16:44:35.905Z</time></trkpt><trkpt lat="43.7832083" lon="11.2353133"><ele>45.599999999999994</ele><time>2026-04-01T16:44:37.905Z</time></trkpt><trkpt lat="43.7831367" lon="11.2354433"><ele>45.4</ele><time>2026-04-01T16:44:38.905Z</time></trkpt><trkpt lat="43.783085" lon="11.2355217"><ele>45.2</ele><time>2026-04-01T16:44:40.905Z</time></trkpt><trkpt lat="43.7830233" lon="11.2356"><ele>45.0</ele><time>2026-04-01T16:44:42.905Z</time></trkpt><trkpt lat="43.782965" lon="11.2356917"><ele>45.0</ele><time>2026-04-01T16:44:44.905Z</time></trkpt><trkpt lat="43.782915" lon="11.2357783"><ele>45.0</ele><time>2026-04-01T16:44:46.905Z</time></trkpt><trkpt lat="43.7828783" lon="11.2358767"><ele>45.0</ele><time>2026-04-01T16:44:48.905Z</time></trkpt><trkpt lat="43.782835" lon="11.2359733"><ele>45.0</ele><time>2026-04-01T16:44:51.905Z</time></trkpt><trkpt lat="43.7827767" lon="11.236045"><ele>45.0</ele><time>2026-04-01T16:44:55.905Z</time></trkpt><trkpt lat="43.7827283" lon="11.236115"><ele>45.0</ele><time>2026-04-01T16:44:57.905Z</time></trkpt><trkpt lat="43.7826767" lon="11.23619"><ele>45.0</ele><time>2026-04-01T16:44:59.905Z</time></trkpt><trkpt lat="43.7826267" lon="11.236285"><ele>45.0</ele><time>2026-04-01T16:45:01.906Z</time></trkpt><trkpt lat="43.7825633" lon="11.2363717"><ele>45.0</ele><time>2026-04-01T16:45:03.905Z</time></trkpt><trkpt lat="43.7825017" lon="11.2364417"><ele>45.0</ele><time>2026-04-01T16:45:05.905Z</time></trkpt><trkpt lat="43.7824317" lon="11.2365083"><ele>45.0</ele><time>2026-04-01T16:45:07.905Z</time></trkpt><trkpt lat="43.78236" lon="11.2366033"><ele>45.0</ele><time>2026-04-01T16:45:09.905Z</time></trkpt><trkpt lat="43.7823" lon="11.2366783"><ele>44.833333333333336</ele><time>2026-04-01T16:45:11.906Z</time></trkpt><trkpt lat="43.7822433" lon="11.23676"><ele>44.666666666666664</ele><time>2026-04-01T16:45:13.905Z</time></trkpt><trkpt lat="43.7821867" lon="11.2368483"><ele>44.5</ele><time>2026-04-01T16:45:15.905Z</time></trkpt><trkpt lat="43.78214" lon="11.2369117"><ele>44.33333333333333</ele><time>2026-04-01T16:45:17.905Z</time></trkpt><trkpt lat="43.7820767" lon="11.236975"><ele>44.166666666666664</ele><time>2026-04-01T16:45:20.905Z</time></trkpt><trkpt lat="43.7820117" lon="11.2370383"><ele>44.0</ele><time>2026-04-01T16:45:23.906Z</time></trkpt><trkpt lat="43.7819567" lon="11.2371083"><ele>44.0</ele><time>2026-04-01T16:45:25.905Z</time></trkpt><trkpt lat="43.7818983" lon="11.2371817"><ele>44.0</ele><time>2026-04-01T16:45:27.905Z</time></trkpt><trkpt lat="43.781835" lon="11.2372217"><ele>44.0</ele><time>2026-04-01T16:45:29.905Z</time></trkpt><trkpt lat="43.781775" lon="11.237275"><ele>44.0</ele><time>2026-04-01T16:45:31.905Z</time></trkpt><trkpt lat="43.78171" lon="11.23731"><ele>44.0</ele><time>2026-04-01T16:45:33.905Z</time></trkpt><trkpt lat="43.7816533" lon="11.237375"><ele>44.0</ele><time>2026-04-01T16:45:35.905Z</time></trkpt><trkpt lat="43.78159" lon="11.237465"><ele>44.5</ele><time>2026-04-01T16:45:37.905Z</time></trkpt><trkpt lat="43.78156" lon="11.23756"><ele>45.0</ele><time>2026-04-01T16:45:38.905Z</time></trkpt><trkpt lat="43.7815317" lon="11.2376383"><ele>45.5</ele><time>2026-04-01T16:45:39.905Z</time></trkpt><trkpt lat="43.7814683" lon="11.2377433"><ele>46.0</ele><time>2026-04-01T16:45:41.904Z</time></trkpt><trkpt lat="43.781405" lon="11.2378217"><ele>46.5</ele><time>2026-04-01T16:45:43.904Z</time></trkpt><trkpt lat="43.781355" lon="11.2379133"><ele>47.0</ele><time>2026-04-01T16:45:45.904Z</time></trkpt><trkpt lat="43.7813067" lon="11.2379867"><ele>47.0</ele><time>2026-04-01T16:45:48.905Z</time></trkpt><trkpt lat="43.7812417" lon="11.2380867"><ele>47.0</ele><time>2026-04-01T16:45:51.904Z</time></trkpt><trkpt lat="43.7811917" lon="11.2381833"><ele>47.0</ele><time>2026-04-01T16:45:53.904Z</time></trkpt><trkpt lat="43.7811317" lon="11.23825"><ele>47.0</ele><time>2026-04-01T16:45:55.904Z</time></trkpt><trkpt lat="43.7810683" lon="11.2383017"><ele>47.0</ele><time>2026-04-01T16:45:57.904Z</time></trkpt><trkpt lat="43.7810017" lon="11.23835"><ele>47.0</ele><time>2026-04-01T16:45:59.905Z</time></trkpt><trkpt lat="43.7809317" lon="11.2384433"><ele>47.0</ele><time>2026-04-01T16:46:01.904Z</time></trkpt><trkpt lat="43.7808717" lon="11.23851"><ele>47.0</ele><time>2026-04-01T16:46:03.904Z</time></trkpt><trkpt lat="43.78082" lon="11.2385783"><ele>47.0</ele><time>2026-04-01T16:46:05.905Z</time></trkpt><trkpt lat="43.7807733" lon="11.2387433"><ele>47.0</ele><time>2026-04-01T16:46:07.905Z</time></trkpt><trkpt lat="43.7807183" lon="11.2388683"><ele>47.0</ele><time>2026-04-01T16:46:09.904Z</time></trkpt><trkpt lat="43.78076" lon="11.2387183"><ele>47.0</ele><time>2026-04-01T16:47:02.905Z</time></trkpt><trkpt lat="43.7806983" lon="11.238745"><ele>47.0</ele><time>2026-04-01T16:47:10.904Z</time></trkpt><trkpt lat="43.7806467" lon="11.2388833"><ele>47.0</ele><time>2026-04-01T16:47:20.904Z</time></trkpt><trkpt lat="43.78057" lon="11.23891"><ele>47.0</ele><time>2026-04-01T16:47:32.904Z</time></trkpt><trkpt lat="43.7804967" lon="11.238985"><ele>47.0</ele><time>2026-04-01T16:47:35.905Z</time></trkpt><trkpt lat="43.7804417" lon="11.2390633"><ele>47.0</ele><time>2026-04-01T16:47:37.904Z</time></trkpt><trkpt lat="43.7804017" lon="11.2391467"><ele>47.0</ele><time>2026-04-01T16:47:40.905Z</time></trkpt><trkpt lat="43.780335" lon="11.2392117"><ele>47.0</ele><time>2026-04-01T16:47:45.904Z</time></trkpt><trkpt lat="43.780275" lon="11.2392967"><ele>47.0</ele><time>2026-04-01T16:47:47.905Z</time></trkpt><trkpt lat="43.78022" lon="11.239355"><ele>47.0</ele><time>2026-04-01T16:47:50.904Z</time></trkpt><trkpt lat="43.78016" lon="11.239445"><ele>47.0</ele><time>2026-04-01T16:47:52.904Z</time></trkpt><trkpt lat="43.7800883" lon="11.239535"><ele>47.0</ele><time>2026-04-01T16:47:55.904Z</time></trkpt><trkpt lat="43.7800283" lon="11.23957"><ele>47.400000000000006</ele><time>2026-04-01T16:47:57.904Z</time></trkpt><trkpt lat="43.779915" lon="11.2396283"><ele>47.800000000000004</ele><time>2026-04-01T16:47:59.904Z</time></trkpt><trkpt lat="43.7798183" lon="11.2396667"><ele>48.2</ele><time>2026-04-01T16:48:01.904Z</time></trkpt><trkpt lat="43.7797417" lon="11.239715"><ele>48.6</ele><time>2026-04-01T16:48:03.905Z</time></trkpt><trkpt lat="43.7796733" lon="11.2397467"><ele>49.0</ele><time>2026-04-01T16:48:07.904Z</time></trkpt><trkpt lat="43.779625" lon="11.2398233"><ele>49.166666666666664</ele><time>2026-04-01T16:48:11.904Z</time></trkpt><trkpt lat="43.7795783" lon="11.2398883"><ele>49.33333333333333</ele><time>2026-04-01T16:48:14.904Z</time></trkpt><trkpt lat="43.7795067" lon="11.2399967"><ele>49.5</ele><time>2026-04-01T16:48:16.904Z</time></trkpt><trkpt lat="43.7794783" lon="11.2401033"><ele>49.66666666666667</ele><time>2026-04-01T16:48:18.904Z</time></trkpt><trkpt lat="43.779455" lon="11.24019"><ele>49.833333333333336</ele><time>2026-04-01T16:48:20.904Z</time></trkpt><trkpt lat="43.7794417" lon="11.2402767"><ele>50.0</ele><time>2026-04-01T16:48:22.904Z</time></trkpt><trkpt lat="43.7794017" lon="11.24038"><ele>50.00000000000001</ele><time>2026-04-01T16:48:26.904Z</time></trkpt><trkpt lat="43.7793817" lon="11.2402917"><ele>50.0</ele><time>2026-04-01T16:48:31.905Z</time></trkpt><trkpt lat="43.7793133" lon="11.240325"><ele>50.0</ele><time>2026-04-01T16:48:35.904Z</time></trkpt><trkpt lat="43.779265" lon="11.2403833"><ele>50.0</ele><time>2026-04-01T16:48:38.904Z</time></trkpt><trkpt lat="43.7792767" lon="11.2405217"><ele>50.00000000000001</ele><time>2026-04-01T16:48:42.905Z</time></trkpt><trkpt lat="43.7793017" lon="11.24062"><ele>50.0</ele><time>2026-04-01T16:48:44.905Z</time></trkpt><trkpt lat="43.7793567" lon="11.24075"><ele>49.50000000000001</ele><time>2026-04-01T16:48:47.904Z</time></trkpt><trkpt lat="43.77941" lon="11.2408167"><ele>49.0</ele><time>2026-04-01T16:48:49.904Z</time></trkpt><trkpt lat="43.7794933" lon="11.2408917"><ele>48.5</ele><time>2026-04-01T16:48:52.905Z</time></trkpt><trkpt lat="43.7795533" lon="11.2409683"><ele>48.0</ele><time>2026-04-01T16:48:54.905Z</time></trkpt><trkpt lat="43.7796317" lon="11.2410017"><ele>47.5</ele><time>2026-04-01T16:48:57.904Z</time></trkpt><trkpt lat="43.7797083" lon="11.2410483"><ele>47.0</ele><time>2026-04-01T16:48:59.904Z</time></trkpt><trkpt lat="43.779795" lon="11.241095"><ele>47.0</ele><time>2026-04-01T16:49:01.905Z</time></trkpt><trkpt lat="43.779875" lon="11.24115"><ele>47.0</ele><time>2026-04-01T16:49:03.904Z</time></trkpt><trkpt lat="43.779945" lon="11.241195"><ele>47.0</ele><time>2026-04-01T16:49:05.904Z</time></trkpt><trkpt lat="43.78002" lon="11.2412233"><ele>47.0</ele><time>2026-04-01T16:49:07.904Z</time></trkpt><trkpt lat="43.7800867" lon="11.2412567"><ele>47.0</ele><time>2026-04-01T16:49:09.904Z</time></trkpt><trkpt lat="43.7801683" lon="11.2412767"><ele>47.0</ele><time>2026-04-01T16:49:11.905Z</time></trkpt><trkpt lat="43.7802383" lon="11.24132"><ele>47.0</ele><time>2026-04-01T16:49:13.904Z</time></trkpt><trkpt lat="43.7802983" lon="11.2413783"><ele>47.0</ele><time>2026-04-01T16:49:15.905Z</time></trkpt><trkpt lat="43.7803567" lon="11.2414217"><ele>47.0</ele><time>2026-04-01T16:49:17.905Z</time></trkpt><trkpt lat="43.7804267" lon="11.2414733"><ele>47.0</ele><time>2026-04-01T16:49:19.905Z</time></trkpt><trkpt lat="43.7805083" lon="11.2415217"><ele>47.0</ele><time>2026-04-01T16:49:21.904Z</time></trkpt><trkpt lat="43.7805933" lon="11.2415567"><ele>47.0</ele><time>2026-04-01T16:49:23.904Z</time></trkpt><trkpt lat="43.78068" lon="11.241575"><ele>46.8</ele><time>2026-04-01T16:49:25.904Z</time></trkpt><trkpt lat="43.7807683" lon="11.2416267"><ele>46.6</ele><time>2026-04-01T16:49:27.904Z</time></trkpt><trkpt lat="43.7808183" lon="11.2416983"><ele>46.4</ele><time>2026-04-01T16:49:28.904Z</time></trkpt><trkpt lat="43.7809067" lon="11.24178"><ele>46.199999999999996</ele><time>2026-04-01T16:49:30.904Z</time></trkpt><trkpt lat="43.7809883" lon="11.24184"><ele>46.0</ele><time>2026-04-01T16:49:32.905Z</time></trkpt><trkpt lat="43.781065" lon="11.2419067"><ele>45.85714285714286</ele><time>2026-04-01T16:49:34.904Z</time></trkpt><trkpt lat="43.7811367" lon="11.2419633"><ele>45.71428571428571</ele><time>2026-04-01T16:49:36.904Z</time></trkpt><trkpt lat="43.7811933" lon="11.242005"><ele>45.57142857142857</ele><time>2026-04-01T16:49:38.904Z</time></trkpt><trkpt lat="43.7812533" lon="11.2420383"><ele>45.42857142857143</ele><time>2026-04-01T16:49:40.904Z</time></trkpt><trkpt lat="43.78133" lon="11.242095"><ele>45.28571428571429</ele><time>2026-04-01T16:49:43.904Z</time></trkpt><trkpt lat="43.7813933" lon="11.24213"><ele>45.14285714285714</ele><time>2026-04-01T16:49:45.904Z</time></trkpt><trkpt lat="43.7814633" lon="11.24215"><ele>45.0</ele><time>2026-04-01T16:49:47.905Z</time></trkpt><trkpt lat="43.7815283" lon="11.2421817"><ele>45.0</ele><time>2026-04-01T16:49:49.904Z</time></trkpt><trkpt lat="43.7816067" lon="11.2422017"><ele>45.0</ele><time>2026-04-01T16:49:51.904Z</time></trkpt><trkpt lat="43.78169" lon="11.24223"><ele>45.0</ele><time>2026-04-01T16:49:54.905Z</time></trkpt><trkpt lat="43.7817517" lon="11.242255"><ele>45.0</ele><time>2026-04-01T16:49:57.904Z</time></trkpt><trkpt lat="43.7817967" lon="11.2423217"><ele>45.0</ele><time>2026-04-01T16:50:03.904Z</time></trkpt><trkpt lat="43.781805" lon="11.24241"><ele>45.0</ele><time>2026-04-01T16:50:08.904Z</time></trkpt><trkpt lat="43.7818333" lon="11.242515"><ele>45.0</ele><time>2026-04-01T16:50:14.905Z</time></trkpt><trkpt lat="43.7818367" lon="11.242625"><ele>45.14285714285714</ele><time>2026-04-01T16:50:19.905Z</time></trkpt><trkpt lat="43.7818283" lon="11.2427183"><ele>45.28571428571429</ele><time>2026-04-01T16:50:23.904Z</time></trkpt><trkpt lat="43.7818083" lon="11.2428083"><ele>45.42857142857143</ele><time>2026-04-01T16:50:28.905Z</time></trkpt><trkpt lat="43.7817667" lon="11.2428883"><ele>45.57142857142857</ele><time>2026-04-01T16:50:34.904Z</time></trkpt><trkpt lat="43.7817217" lon="11.2429567"><ele>45.71428571428571</ele><time>2026-04-01T16:50:48.904Z</time></trkpt><trkpt lat="43.7817517" lon="11.2430417"><ele>45.85714285714286</ele><time>2026-04-01T16:51:03.904Z</time></trkpt><trkpt lat="43.78181" lon="11.243115"><ele>46.0</ele><time>2026-04-01T16:51:07.904Z</time></trkpt><trkpt lat="43.7818833" lon="11.2432533"><ele>46.285714285714285</ele><time>2026-04-01T16:51:11.904Z</time></trkpt><trkpt lat="43.7819283" lon="11.2433267"><ele>46.57142857142857</ele><time>2026-04-01T16:51:13.904Z</time></trkpt><trkpt lat="43.7819683" lon="11.2433967"><ele>46.857142857142854</ele><time>2026-04-01T16:51:15.905Z</time></trkpt><trkpt lat="43.782005" lon="11.243475"><ele>47.14285714285714</ele><time>2026-04-01T16:51:17.904Z</time></trkpt><trkpt lat="43.7820283" lon="11.2435617"><ele>47.42857142857143</ele><time>2026-04-01T16:51:19.905Z</time></trkpt><trkpt lat="43.7820967" lon="11.243655"><ele>47.71428571428571</ele><time>2026-04-01T16:51:22.904Z</time></trkpt><trkpt lat="43.7821633" lon="11.243695"><ele>48.0</ele><time>2026-04-01T16:51:24.904Z</time></trkpt><trkpt lat="43.7822283" lon="11.2437533"><ele>47.99999999999999</ele><time>2026-04-01T16:51:26.904Z</time></trkpt><trkpt lat="43.78228" lon="11.2438283"><ele>48.0</ele><time>2026-04-01T16:51:28.904Z</time></trkpt><trkpt lat="43.7823183" lon="11.2439"><ele>48.0</ele><time>2026-04-01T16:51:30.904Z</time></trkpt><trkpt lat="43.7823517" lon="11.243985"><ele>48.0</ele><time>2026-04-01T16:51:32.904Z</time></trkpt><trkpt lat="43.7823933" lon="11.2440583"><ele>48.0</ele><time>2026-04-01T16:51:34.904Z</time></trkpt><trkpt lat="43.7824083" lon="11.244155"><ele>47.99999999999999</ele><time>2026-04-01T16:51:36.905Z</time></trkpt><trkpt lat="43.782465" lon="11.2442217"><ele>48.0</ele><time>2026-04-01T16:51:38.904Z</time></trkpt><trkpt lat="43.7825133" lon="11.2442833"><ele>48.2</ele><time>2026-04-01T16:51:40.905Z</time></trkpt><trkpt lat="43.7826083" lon="11.24436"><ele>48.4</ele><time>2026-04-01T16:51:43.904Z</time></trkpt><trkpt lat="43.782685" lon="11.24441"><ele>48.6</ele><time>2026-04-01T16:51:45.904Z</time></trkpt><trkpt lat="43.7827283" lon="11.244495"><ele>48.800000000000004</ele><time>2026-04-01T16:51:47.905Z</time></trkpt><trkpt lat="43.7827233" lon="11.2446367"><ele>49.0</ele><time>2026-04-01T16:51:49.905Z</time></trkpt><trkpt lat="43.7826983" lon="11.2447567"><ele>49.0</ele><time>2026-04-01T16:51:51.904Z</time></trkpt><trkpt lat="43.782675" lon="11.2448867"><ele>49.0</ele><time>2026-04-01T16:51:53.905Z</time></trkpt><trkpt lat="43.7826533" lon="11.2450117"><ele>49.0</ele><time>2026-04-01T16:51:55.904Z</time></trkpt><trkpt lat="43.782665" lon="11.24511"><ele>49.0</ele><time>2026-04-01T16:51:57.904Z</time></trkpt><trkpt lat="43.782745" lon="11.2451817"><ele>49.0</ele><time>2026-04-01T16:51:59.904Z</time></trkpt><trkpt lat="43.7827833" lon="11.2453033"><ele>49.0</ele><time>2026-04-01T16:52:02.904Z</time></trkpt><trkpt lat="43.78288" lon="11.2455533"><ele>49.0</ele><time>2026-04-01T16:52:04.904Z</time></trkpt><trkpt lat="43.7829467" lon="11.2455917"><ele>49.0</ele><time>2026-04-01T16:52:05.904Z</time></trkpt><trkpt lat="43.7829433" lon="11.2457183"><ele>49.0</ele><time>2026-04-01T16:52:11.904Z</time></trkpt><trkpt lat="43.7828767" lon="11.2457817"><ele>49.0</ele><time>2026-04-01T16:52:13.904Z</time></trkpt><trkpt lat="43.7828067" lon="11.2458017"><ele>48.49999999999999</ele><time>2026-04-01T16:52:15.904Z</time></trkpt><trkpt lat="43.78274" lon="11.2458067"><ele>48.0</ele><time>2026-04-01T16:52:17.904Z</time></trkpt><trkpt lat="43.782675" lon="11.2458067"><ele>47.5</ele><time>2026-04-01T16:52:19.904Z</time></trkpt><trkpt lat="43.7826017" lon="11.2457767"><ele>47.0</ele><time>2026-04-01T16:52:21.903Z</time></trkpt><trkpt lat="43.7825233" lon="11.245785"><ele>46.5</ele><time>2026-04-01T16:52:23.903Z</time></trkpt><trkpt lat="43.782435" lon="11.2457917"><ele>46.0</ele><time>2026-04-01T16:52:25.903Z</time></trkpt><trkpt lat="43.7823567" lon="11.245825"><ele>45.8</ele><time>2026-04-01T16:52:27.904Z</time></trkpt><trkpt lat="43.782265" lon="11.2458633"><ele>45.599999999999994</ele><time>2026-04-01T16:52:29.903Z</time></trkpt><trkpt lat="43.78216" lon="11.2458817"><ele>45.4</ele><time>2026-04-01T16:52:31.904Z</time></trkpt><trkpt lat="43.7820583" lon="11.2459333"><ele>45.2</ele><time>2026-04-01T16:52:33.903Z</time></trkpt><trkpt lat="43.78196" lon="11.2459983"><ele>45.0</ele><time>2026-04-01T16:52:35.904Z</time></trkpt><trkpt lat="43.7818583" lon="11.2460633"><ele>45.6</ele><time>2026-04-01T16:52:37.903Z</time></trkpt><trkpt lat="43.7817633" lon="11.24613"><ele>46.2</ele><time>2026-04-01T16:52:39.903Z</time></trkpt><trkpt lat="43.781655" lon="11.24619"><ele>46.8</ele><time>2026-04-01T16:52:41.903Z</time></trkpt><trkpt lat="43.7815567" lon="11.24624"><ele>47.4</ele><time>2026-04-01T16:52:43.904Z</time></trkpt><trkpt lat="43.7814667" lon="11.246285"><ele>48.0</ele><time>2026-04-01T16:52:45.903Z</time></trkpt><trkpt lat="43.781365" lon="11.2463483"><ele>48.0</ele><time>2026-04-01T16:52:47.903Z</time></trkpt><trkpt lat="43.7812683" lon="11.2464167"><ele>48.0</ele><time>2026-04-01T16:52:49.903Z</time></trkpt><trkpt lat="43.78117" lon="11.2464983"><ele>48.0</ele><time>2026-04-01T16:52:51.903Z</time></trkpt><trkpt lat="43.7810733" lon="11.2465583"><ele>48.0</ele><time>2026-04-01T16:52:53.904Z</time></trkpt><trkpt lat="43.7809783" lon="11.2466183"><ele>48.0</ele><time>2026-04-01T16:52:55.903Z</time></trkpt><trkpt lat="43.7808817" lon="11.2466717"><ele>47.599999999999994</ele><time>2026-04-01T16:52:57.903Z</time></trkpt><trkpt lat="43.78079" lon="11.2467217"><ele>47.199999999999996</ele><time>2026-04-01T16:52:59.903Z</time></trkpt><trkpt lat="43.7806967" lon="11.2467717"><ele>46.8</ele><time>2026-04-01T16:53:01.903Z</time></trkpt><trkpt lat="43.78061" lon="11.2468083"><ele>46.4</ele><time>2026-04-01T16:53:03.903Z</time></trkpt><trkpt lat="43.780525" lon="11.2468483"><ele>46.0</ele><time>2026-04-01T16:53:05.903Z</time></trkpt><trkpt lat="43.7804267" lon="11.2469233"><ele>46.0</ele><time>2026-04-01T16:53:07.903Z</time></trkpt><trkpt lat="43.780335" lon="11.2470133"><ele>46.0</ele><time>2026-04-01T16:53:09.904Z</time></trkpt><trkpt lat="43.7802383" lon="11.2471117"><ele>46.0</ele><time>2026-04-01T16:53:11.903Z</time></trkpt><trkpt lat="43.7801783" lon="11.2471433"><ele>46.0</ele><time>2026-04-01T16:53:12.903Z</time></trkpt><trkpt lat="43.7801133" lon="11.2471717"><ele>46.0</ele><time>2026-04-01T16:53:13.904Z</time></trkpt><trkpt lat="43.7800167" lon="11.24723"><ele>46.5</ele><time>2026-04-01T16:53:15.904Z</time></trkpt><trkpt lat="43.7799567" lon="11.2472983"><ele>47.0</ele><time>2026-04-01T16:53:17.903Z</time></trkpt><trkpt lat="43.7799467" lon="11.247405"><ele>47.5</ele><time>2026-04-01T16:53:22.904Z</time></trkpt><trkpt lat="43.779985" lon="11.24748"><ele>48.0</ele><time>2026-04-01T16:53:25.903Z</time></trkpt><trkpt lat="43.7800267" lon="11.247555"><ele>48.49999999999999</ele><time>2026-04-01T16:53:28.904Z</time></trkpt><trkpt lat="43.780065" lon="11.247645"><ele>49.0</ele><time>2026-04-01T16:53:31.903Z</time></trkpt><trkpt lat="43.7801167" lon="11.24775"><ele>48.99999999999999</ele><time>2026-04-01T16:53:34.903Z</time></trkpt><trkpt lat="43.7801333" lon="11.2478517"><ele>49.0</ele><time>2026-04-01T16:53:36.903Z</time></trkpt><trkpt lat="43.7801483" lon="11.247945"><ele>49.0</ele><time>2026-04-01T16:53:38.903Z</time></trkpt><trkpt lat="43.780175" lon="11.248065"><ele>49.0</ele><time>2026-04-01T16:53:41.903Z</time></trkpt><trkpt lat="43.7802" lon="11.2481767"><ele>48.99999999999999</ele><time>2026-04-01T16:53:44.903Z</time></trkpt><trkpt lat="43.7802317" lon="11.2482883"><ele>49.0</ele><time>2026-04-01T16:53:47.903Z</time></trkpt><trkpt lat="43.7802567" lon="11.2483967"><ele>49.166666666666664</ele><time>2026-04-01T16:53:50.903Z</time></trkpt><trkpt lat="43.780285" lon="11.24852"><ele>49.33333333333333</ele><time>2026-04-01T16:53:53.903Z</time></trkpt><trkpt lat="43.780325" lon="11.2486167"><ele>49.5</ele><time>2026-04-01T16:53:56.903Z</time></trkpt><trkpt lat="43.780355" lon="11.248695"><ele>49.66666666666667</ele><time>2026-04-01T16:53:58.904Z</time></trkpt><trkpt lat="43.7803867" lon="11.2488133"><ele>49.833333333333336</ele><time>2026-04-01T16:54:01.903Z</time></trkpt><trkpt lat="43.780395" lon="11.248915"><ele>50.0</ele><time>2026-04-01T16:54:04.904Z</time></trkpt><trkpt lat="43.7803583" lon="11.24902"><ele>49.85714285714286</ele><time>2026-04-01T16:54:07.903Z</time></trkpt><trkpt lat="43.780305" lon="11.2490817"><ele>49.714285714285715</ele><time>2026-04-01T16:54:09.903Z</time></trkpt><trkpt lat="43.7802317" lon="11.249155"><ele>49.57142857142857</ele><time>2026-04-01T16:54:12.903Z</time></trkpt><trkpt lat="43.7801917" lon="11.249225"><ele>49.42857142857143</ele><time>2026-04-01T16:54:15.903Z</time></trkpt><trkpt lat="43.780185" lon="11.2493267"><ele>49.285714285714285</ele><time>2026-04-01T16:54:20.903Z</time></trkpt><trkpt lat="43.7801883" lon="11.2494183"><ele>49.142857142857146</ele><time>2026-04-01T16:54:25.903Z</time></trkpt><trkpt lat="43.7801533" lon="11.24951"><ele>49.0</ele><time>2026-04-01T16:54:29.904Z</time></trkpt><trkpt lat="43.7801" lon="11.2496033"><ele>48.99999999999999</ele><time>2026-04-01T16:54:32.904Z</time></trkpt><trkpt lat="43.7800367" lon="11.2496933"><ele>49.0</ele><time>2026-04-01T16:54:35.903Z</time></trkpt><trkpt lat="43.7799767" lon="11.2497533"><ele>49.0</ele><time>2026-04-01T16:54:38.903Z</time></trkpt><trkpt lat="43.7799283" lon="11.2498217"><ele>49.0</ele><time>2026-04-01T16:54:41.904Z</time></trkpt><trkpt lat="43.77989" lon="11.2499017"><ele>48.99999999999999</ele><time>2026-04-01T16:54:43.903Z</time></trkpt><trkpt lat="43.77982" lon="11.2499917"><ele>49.0</ele><time>2026-04-01T16:54:45.903Z</time></trkpt><trkpt lat="43.7797683" lon="11.25005"><ele>49.2</ele><time>2026-04-01T16:54:47.903Z</time></trkpt><trkpt lat="43.7797033" lon="11.2501233"><ele>49.400000000000006</ele><time>2026-04-01T16:54:50.903Z</time></trkpt><trkpt lat="43.7796383" lon="11.25022"><ele>49.6</ele><time>2026-04-01T16:54:53.903Z</time></trkpt><trkpt lat="43.7795833" lon="11.250325"><ele>49.8</ele><time>2026-04-01T16:54:57.903Z</time></trkpt><trkpt lat="43.77955" lon="11.2504133"><ele>50.0</ele><time>2026-04-01T16:54:59.903Z</time></trkpt><trkpt lat="43.7794283" lon="11.250505"><ele>50.2</ele><time>2026-04-01T16:55:01.903Z</time></trkpt><trkpt lat="43.7793017" lon="11.25058"><ele>50.4</ele><time>2026-04-01T16:55:03.903Z</time></trkpt><trkpt lat="43.7792" lon="11.2505683"><ele>50.599999999999994</ele><time>2026-04-01T16:55:05.903Z</time></trkpt><trkpt lat="43.7791267" lon="11.25057"><ele>50.8</ele><time>2026-04-01T16:55:07.903Z</time></trkpt><trkpt lat="43.77904" lon="11.2506717"><ele>51.0</ele><time>2026-04-01T16:55:10.903Z</time></trkpt><trkpt lat="43.7789683" lon="11.25074"><ele>51.333333333333336</ele><time>2026-04-01T16:55:13.903Z</time></trkpt><trkpt lat="43.7788933" lon="11.2508067"><ele>51.66666666666667</ele><time>2026-04-01T16:55:15.903Z</time></trkpt><trkpt lat="43.77885" lon="11.2509"><ele>52.0</ele><time>2026-04-01T16:55:17.903Z</time></trkpt><trkpt lat="43.7787983" lon="11.251"><ele>52.333333333333336</ele><time>2026-04-01T16:55:20.903Z</time></trkpt><trkpt lat="43.77876" lon="11.2510867"><ele>52.66666666666667</ele><time>2026-04-01T16:55:22.903Z</time></trkpt><trkpt lat="43.7787283" lon="11.251215"><ele>53.0</ele><time>2026-04-01T16:55:24.903Z</time></trkpt><trkpt lat="43.7787067" lon="11.2515667"><ele>52.8</ele><time>2026-04-01T16:55:26.903Z</time></trkpt><trkpt lat="43.77864" lon="11.251865"><ele>52.599999999999994</ele><time>2026-04-01T16:55:27.903Z</time></trkpt><trkpt lat="43.7786167" lon="11.2519483"><ele>52.400000000000006</ele><time>2026-04-01T16:55:29.903Z</time></trkpt><trkpt lat="43.7785833" lon="11.2520433"><ele>52.2</ele><time>2026-04-01T16:55:32.903Z</time></trkpt><trkpt lat="43.7785583" lon="11.252145"><ele>52.0</ele><time>2026-04-01T16:55:34.903Z</time></trkpt><trkpt lat="43.778515" lon="11.2522333"><ele>52.166666666666664</ele><time>2026-04-01T16:55:36.903Z</time></trkpt><trkpt lat="43.77849" lon="11.2523317"><ele>52.33333333333333</ele><time>2026-04-01T16:55:38.903Z</time></trkpt><trkpt lat="43.7784483" lon="11.25241"><ele>52.5</ele><time>2026-04-01T16:55:40.903Z</time></trkpt><trkpt lat="43.7784217" lon="11.25253"><ele>52.66666666666667</ele><time>2026-04-01T16:55:42.904Z</time></trkpt><trkpt lat="43.7783867" lon="11.252665"><ele>52.833333333333336</ele><time>2026-04-01T16:55:45.904Z</time></trkpt><trkpt lat="43.7783633" lon="11.2527733"><ele>53.0</ele><time>2026-04-01T16:55:47.903Z</time></trkpt><trkpt lat="43.7783183" lon="11.2528483"><ele>53.0</ele><time>2026-04-01T16:55:53.903Z</time></trkpt><trkpt lat="43.7783067" lon="11.252965"><ele>53.0</ele><time>2026-04-01T16:55:56.904Z</time></trkpt><trkpt lat="43.7782567" lon="11.25324"><ele>53.0</ele><time>2026-04-01T16:55:59.903Z</time></trkpt><trkpt lat="43.7781867" lon="11.25333"><ele>53.0</ele><time>2026-04-01T16:56:05.903Z</time></trkpt><trkpt lat="43.7781267" lon="11.253405"><ele>53.0</ele><time>2026-04-01T16:56:08.903Z</time></trkpt><trkpt lat="43.77808" lon="11.2534933"><ele>53.0</ele><time>2026-04-01T16:56:12.903Z</time></trkpt><trkpt lat="43.77803" lon="11.2535833"><ele>53.0</ele><time>2026-04-01T16:56:15.903Z</time></trkpt><trkpt lat="43.7779867" lon="11.2536783"><ele>53.0</ele><time>2026-04-01T16:56:17.903Z</time></trkpt><trkpt lat="43.7779583" lon="11.2537567"><ele>53.0</ele><time>2026-04-01T16:56:19.904Z</time></trkpt><trkpt lat="43.77783" lon="11.2540433"><ele>53.16666666666667</ele><time>2026-04-01T16:56:22.903Z</time></trkpt><trkpt lat="43.777815" lon="11.2541433"><ele>53.333333333333336</ele><time>2026-04-01T16:56:24.903Z</time></trkpt><trkpt lat="43.777785" lon="11.2542467"><ele>53.5</ele><time>2026-04-01T16:56:29.903Z</time></trkpt><trkpt lat="43.77776" lon="11.2543517"><ele>53.66666666666667</ele><time>2026-04-01T16:56:32.904Z</time></trkpt><trkpt lat="43.7777183" lon="11.254455"><ele>53.833333333333336</ele><time>2026-04-01T16:56:35.903Z</time></trkpt><trkpt lat="43.7776683" lon="11.2545317"><ele>54.0</ele><time>2026-04-01T16:56:38.904Z</time></trkpt><trkpt lat="43.7775833" lon="11.2545983"><ele>54.0</ele><time>2026-04-01T16:56:40.903Z</time></trkpt><trkpt lat="43.77749" lon="11.2546967"><ele>54.0</ele><time>2026-04-01T16:56:42.903Z</time></trkpt><trkpt lat="43.7774267" lon="11.2547617"><ele>54.0</ele><time>2026-04-01T16:56:46.904Z</time></trkpt><trkpt lat="43.777375" lon="11.2548333"><ele>54.0</ele><time>2026-04-01T16:56:48.903Z</time></trkpt><trkpt lat="43.7773367" lon="11.2549267"><ele>54.0</ele><time>2026-04-01T16:56:51.903Z</time></trkpt><trkpt lat="43.777295" lon="11.2550433"><ele>54.0</ele><time>2026-04-01T16:56:54.904Z</time></trkpt><trkpt lat="43.7772817" lon="11.255375"><ele>54.25</ele><time>2026-04-01T16:56:56.903Z</time></trkpt><trkpt lat="43.7773083" lon="11.255525"><ele>54.5</ele><time>2026-04-01T16:57:01.903Z</time></trkpt><trkpt lat="43.7773167" lon="11.2556317"><ele>54.75</ele><time>2026-04-01T16:57:04.903Z</time></trkpt><trkpt lat="43.77728" lon="11.2557333"><ele>55.0</ele><time>2026-04-01T16:57:06.903Z</time></trkpt><trkpt lat="43.7771333" lon="11.25604"><ele>55.33333333333333</ele><time>2026-04-01T16:57:08.903Z</time></trkpt><trkpt lat="43.7770967" lon="11.25612"><ele>55.666666666666664</ele><time>2026-04-01T16:57:11.903Z</time></trkpt><trkpt lat="43.7770117" lon="11.2562033"><ele>56.0</ele><time>2026-04-01T16:57:16.903Z</time></trkpt><trkpt lat="43.7769567" lon="11.2562683"><ele>56.33333333333333</ele><time>2026-04-01T16:57:18.903Z</time></trkpt><trkpt lat="43.7769" lon="11.2563333"><ele>56.666666666666664</ele><time>2026-04-01T16:57:21.903Z</time></trkpt><trkpt lat="43.77685" lon="11.2564083"><ele>57.0</ele><time>2026-04-01T16:57:24.903Z</time></trkpt><trkpt lat="43.77681" lon="11.2565017"><ele>57.6</ele><time>2026-04-01T16:57:26.902Z</time></trkpt><trkpt lat="43.7767633" lon="11.2566017"><ele>58.2</ele><time>2026-04-01T16:57:30.902Z</time></trkpt><trkpt lat="43.77671" lon="11.256695"><ele>58.8</ele><time>2026-04-01T16:57:31.903Z</time></trkpt><trkpt lat="43.7767433" lon="11.2568867"><ele>59.4</ele><time>2026-04-01T16:57:34.903Z</time></trkpt><trkpt lat="43.77676" lon="11.25703"><ele>60.0</ele><time>2026-04-01T16:57:36.902Z</time></trkpt><trkpt lat="43.776745" lon="11.25712"><ele>60.0</ele><time>2026-04-01T16:57:38.902Z</time></trkpt><trkpt lat="43.776705" lon="11.2572167"><ele>60.0</ele><time>2026-04-01T16:57:40.902Z</time></trkpt><trkpt lat="43.7766617" lon="11.2572833"><ele>60.0</ele><time>2026-04-01T16:57:42.902Z</time></trkpt><trkpt lat="43.7766167" lon="11.2573483"><ele>60.0</ele><time>2026-04-01T16:57:44.903Z</time></trkpt><trkpt lat="43.77658" lon="11.257425"><ele>60.0</ele><time>2026-04-01T16:57:46.902Z</time></trkpt><trkpt lat="43.776515" lon="11.2575083"><ele>60.0</ele><time>2026-04-01T16:57:48.902Z</time></trkpt><trkpt lat="43.776445" lon="11.2576233"><ele>59.666666666666664</ele><time>2026-04-01T16:57:50.902Z</time></trkpt><trkpt lat="43.7764" lon="11.2577183"><ele>59.33333333333333</ele><time>2026-04-01T16:57:52.902Z</time></trkpt><trkpt lat="43.77635" lon="11.257785"><ele>59.0</ele><time>2026-04-01T16:57:54.902Z</time></trkpt><trkpt lat="43.7762933" lon="11.257895"><ele>58.666666666666664</ele><time>2026-04-01T16:57:57.902Z</time></trkpt><trkpt lat="43.7762667" lon="11.2579883"><ele>58.33333333333333</ele><time>2026-04-01T16:57:59.902Z</time></trkpt><trkpt lat="43.7762317" lon="11.2580983"><ele>58.0</ele><time>2026-04-01T16:58:01.902Z</time></trkpt><trkpt lat="43.77618" lon="11.2581917"><ele>57.83333333333333</ele><time>2026-04-01T16:58:03.903Z</time></trkpt><trkpt lat="43.7761317" lon="11.258295"><ele>57.666666666666664</ele><time>2026-04-01T16:58:05.902Z</time></trkpt><trkpt lat="43.7760817" lon="11.2584067"><ele>57.5</ele><time>2026-04-01T16:58:07.902Z</time></trkpt><trkpt lat="43.7760433" lon="11.2585083"><ele>57.33333333333333</ele><time>2026-04-01T16:58:09.903Z</time></trkpt><trkpt lat="43.7760067" lon="11.2585967"><ele>57.166666666666664</ele><time>2026-04-01T16:58:11.902Z</time></trkpt><trkpt lat="43.775955" lon="11.2587133"><ele>57.0</ele><time>2026-04-01T16:58:13.903Z</time></trkpt><trkpt lat="43.7758717" lon="11.2587967"><ele>57.400000000000006</ele><time>2026-04-01T16:58:16.902Z</time></trkpt><trkpt lat="43.7758467" lon="11.2589017"><ele>57.800000000000004</ele><time>2026-04-01T16:58:19.903Z</time></trkpt><trkpt lat="43.7758183" lon="11.2590233"><ele>58.2</ele><time>2026-04-01T16:58:22.903Z</time></trkpt><trkpt lat="43.7757917" lon="11.25916"><ele>58.6</ele><time>2026-04-01T16:58:25.902Z</time></trkpt><trkpt lat="43.775735" lon="11.2592983"><ele>59.0</ele><time>2026-04-01T16:58:27.902Z</time></trkpt><trkpt lat="43.775685" lon="11.2593733"><ele>59.16666666666667</ele><time>2026-04-01T16:58:29.902Z</time></trkpt><trkpt lat="43.7756383" lon="11.25946"><ele>59.333333333333336</ele><time>2026-04-01T16:58:31.902Z</time></trkpt><trkpt lat="43.7755983" lon="11.259555"><ele>59.5</ele><time>2026-04-01T16:58:33.903Z</time></trkpt><trkpt lat="43.7755367" lon="11.259655"><ele>59.66666666666667</ele><time>2026-04-01T16:58:35.903Z</time></trkpt><trkpt lat="43.7755183" lon="11.2597833"><ele>59.833333333333336</ele><time>2026-04-01T16:58:37.902Z</time></trkpt><trkpt lat="43.77548" lon="11.2598533"><ele>60.0</ele><time>2026-04-01T16:58:38.902Z</time></trkpt><trkpt lat="43.775455" lon="11.2599833"><ele>60.25</ele><time>2026-04-01T16:58:40.903Z</time></trkpt><trkpt lat="43.7754183" lon="11.2601"><ele>60.5</ele><time>2026-04-01T16:58:42.902Z</time></trkpt><trkpt lat="43.77538" lon="11.2602233"><ele>60.75</ele><time>2026-04-01T16:58:44.902Z</time></trkpt><trkpt lat="43.77537" lon="11.260555"><ele>61.0</ele><time>2026-04-01T16:58:46.902Z</time></trkpt><trkpt lat="43.775335" lon="11.260635"><ele>60.33333333333333</ele><time>2026-04-01T16:58:47.902Z</time></trkpt><trkpt lat="43.7753017" lon="11.26076"><ele>59.666666666666664</ele><time>2026-04-01T16:58:49.902Z</time></trkpt><trkpt lat="43.7752533" lon="11.260835"><ele>59.0</ele><time>2026-04-01T16:58:51.902Z</time></trkpt><trkpt lat="43.7751983" lon="11.260935"><ele>58.33333333333333</ele><time>2026-04-01T16:58:53.902Z</time></trkpt><trkpt lat="43.7751417" lon="11.2610317"><ele>57.666666666666664</ele><time>2026-04-01T16:58:55.903Z</time></trkpt><trkpt lat="43.7750983" lon="11.261135"><ele>57.0</ele><time>2026-04-01T16:58:56.903Z</time></trkpt><trkpt lat="43.7750767" lon="11.26122"><ele>56.400000000000006</ele><time>2026-04-01T16:58:57.902Z</time></trkpt><trkpt lat="43.7750517" lon="11.26135"><ele>55.800000000000004</ele><time>2026-04-01T16:58:59.903Z</time></trkpt><trkpt lat="43.774995" lon="11.2614267"><ele>55.2</ele><time>2026-04-01T16:59:01.903Z</time></trkpt><trkpt lat="43.774945" lon="11.2614933"><ele>54.6</ele><time>2026-04-01T16:59:03.902Z</time></trkpt><trkpt lat="43.7749217" lon="11.261605"><ele>54.0</ele><time>2026-04-01T16:59:05.902Z</time></trkpt><trkpt lat="43.774855" lon="11.261745"><ele>54.0</ele><time>2026-04-01T16:59:09.902Z</time></trkpt><trkpt lat="43.77479" lon="11.2618283"><ele>54.00000000000001</ele><time>2026-04-01T16:59:12.902Z</time></trkpt><trkpt lat="43.7747483" lon="11.2618967"><ele>54.00000000000001</ele><time>2026-04-01T16:59:15.902Z</time></trkpt><trkpt lat="43.774685" lon="11.26198"><ele>54.0</ele><time>2026-04-01T16:59:18.902Z</time></trkpt><trkpt lat="43.7745917" lon="11.2621333"><ele>54.0</ele><time>2026-04-01T16:59:21.902Z</time></trkpt><trkpt lat="43.77456" lon="11.262225"><ele>54.333333333333336</ele><time>2026-04-01T16:59:28.902Z</time></trkpt><trkpt lat="43.7746033" lon="11.26229"><ele>54.66666666666667</ele><time>2026-04-01T16:59:37.902Z</time></trkpt><trkpt lat="43.7746467" lon="11.2623933"><ele>55.0</ele><time>2026-04-01T16:59:48.902Z</time></trkpt><trkpt lat="43.7747133" lon="11.2622967"><ele>55.333333333333336</ele><time>2026-04-01T17:00:01.902Z</time></trkpt><trkpt lat="43.7746667" lon="11.2624233"><ele>55.66666666666667</ele><time>2026-04-01T17:00:20.903Z</time></trkpt><trkpt lat="43.774615" lon="11.2624767"><ele>56.0</ele><time>2026-04-01T17:00:27.902Z</time></trkpt><trkpt lat="43.7745283" lon="11.2625033"><ele>56.00000000000001</ele><time>2026-04-01T17:00:42.902Z</time></trkpt><trkpt lat="43.77459" lon="11.262405"><ele>56.0</ele><time>2026-04-01T17:00:47.902Z</time></trkpt><trkpt lat="43.7746549" lon="11.2624162"><ele>56.0</ele><time>2026-04-01T17:01:21.902Z</time></trkpt><trkpt lat="43.7746188" lon="11.2624925"><ele>56.0</ele><time>2026-04-01T17:01:47.901Z</time></trkpt><trkpt lat="43.7746564" lon="11.2624055"><ele>56.00000000000001</ele><time>2026-04-01T17:02:10.901Z</time></trkpt><trkpt lat="43.774595" lon="11.2624467"><ele>56.0</ele><time>2026-04-01T17:03:35.901Z</time></trkpt><trkpt lat="43.7746833" lon="11.2623917"><ele>56.0</ele><time>2026-04-01T17:04:08.901Z</time></trkpt><trkpt lat="43.7746167" lon="11.2624517"><ele>56.0</ele><time>2026-04-01T17:04:21.901Z</time></trkpt><trkpt lat="43.7745567" lon="11.2625267"><ele>56.0</ele><time>2026-04-01T17:04:25.901Z</time></trkpt><trkpt lat="43.7746183" lon="11.2624783"><ele>56.0</ele><time>2026-04-01T17:04:39.902Z</time></trkpt><trkpt lat="43.7746817" lon="11.2624483"><ele>56.0</ele><time>2026-04-01T17:05:43.9Z</time></trkpt><trkpt lat="43.7746117" lon="11.2624533"><ele>56.0</ele><time>2026-04-01T17:06:22.9Z</time></trkpt><trkpt lat="43.7745483" lon="11.2624733"><ele>56.0</ele><time>2026-04-01T17:06:29.9Z</time></trkpt><trkpt lat="43.7744783" lon="11.2624559"><ele>56.00000000000001</ele><time>2026-04-01T17:06:39.901Z</time></trkpt><trkpt lat="43.7744097" lon="11.2624689"><ele>56.0</ele><time>2026-04-01T17:06:44.901Z</time></trkpt><trkpt lat="43.774302" lon="11.262422"><ele>56.0</ele><time>2026-04-01T17:06:45.901Z</time></trkpt><trkpt lat="43.7742804" lon="11.262513"><ele>56.0</ele><time>2026-04-01T17:06:56.9Z</time></trkpt><trkpt lat="43.7743352" lon="11.2626054"><ele>56.00000000000001</ele><time>2026-04-01T17:07:00.9Z</time></trkpt><trkpt lat="43.7743652" lon="11.2626881"><ele>56.0</ele><time>2026-04-01T17:07:03.9Z</time></trkpt><trkpt lat="43.7744932" lon="11.2628605"><ele>56.0</ele><time>2026-04-01T17:07:05.9Z</time></trkpt><trkpt lat="43.7745454" lon="11.2629236"><ele>56.0</ele><time>2026-04-01T17:07:07.9Z</time></trkpt></trkseg></trk></gpx>